createdAt,value
2022-11-23T00:01:22.706Z,0
2022-11-23T00:06:22.722Z,0
2022-11-23T00:11:22.855Z,0
2022-11-23T00:16:22.716Z,0
2022-11-23T00:21:22.707Z,0
2022-11-23T00:26:22.714Z,0
2022-11-23T00:31:22.728Z,0
2022-11-23T00:36:22.696Z,0
2022-11-23T00:41:22.723Z,0
2022-11-23T00:46:22.726Z,0
2022-11-23T00:51:22.733Z,0
2022-11-23T00:56:22.700Z,0
2022-11-23T01:01:22.766Z,0
2022-11-23T01:06:22.731Z,0
2022-11-23T01:11:22.717Z,0
2022-11-23T01:16:24.325Z,0
2022-11-23T01:21:22.713Z,0
2022-11-23T01:26:22.691Z,0
2022-11-23T01:31:22.717Z,0
2022-11-23T01:36:22.720Z,0
2022-11-23T01:41:22.683Z,0
2022-11-23T01:46:22.676Z,0
2022-11-23T01:51:22.701Z,0
2022-11-23T01:56:22.681Z,0
2022-11-23T02:01:22.717Z,0
2022-11-23T02:06:22.702Z,0
2022-11-23T02:11:22.736Z,0
2022-11-23T02:16:22.665Z,0
2022-11-23T02:21:22.708Z,0
2022-11-23T02:26:22.666Z,0
2022-11-23T02:31:22.727Z,0
2022-11-23T02:36:22.707Z,0
2022-11-23T02:41:22.708Z,0
2022-11-23T02:46:22.698Z,0
2022-11-23T02:51:22.703Z,0
2022-11-23T02:56:22.677Z,0
2022-11-23T03:01:22.701Z,0
2022-11-23T03:06:22.702Z,0
2022-11-23T03:11:22.714Z,0
2022-11-23T03:16:22.676Z,0
2022-11-23T03:21:22.668Z,0
2022-11-23T03:26:22.682Z,0
2022-11-23T03:31:22.684Z,0
2022-11-23T03:36:22.643Z,0
2022-11-23T03:41:22.666Z,0
2022-11-23T03:46:22.678Z,0
2022-11-23T03:51:22.686Z,0
2022-11-23T03:56:22.651Z,0
2022-11-23T04:01:22.667Z,0
2022-11-23T04:06:22.641Z,0
2022-11-23T04:11:22.694Z,0
2022-11-23T04:16:22.670Z,0
2022-11-23T04:21:22.670Z,0
2022-11-23T04:26:22.631Z,0
2022-11-23T04:31:22.689Z,0
2022-11-23T04:36:22.674Z,0
2022-11-23T04:41:22.623Z,0
2022-11-23T04:46:22.664Z,0
2022-11-23T04:51:22.646Z,0
2022-11-23T04:56:22.661Z,0
2022-11-23T05:01:22.676Z,0
2022-11-23T05:06:22.657Z,0
2022-11-23T05:11:22.639Z,0
2022-11-23T05:16:22.623Z,0
2022-11-23T05:21:22.631Z,0
2022-11-23T05:26:22.625Z,0
2022-11-23T05:31:22.653Z,0
2022-11-23T05:36:22.623Z,0
2022-11-23T05:41:22.600Z,0
2022-11-23T05:46:22.613Z,0
2022-11-23T05:51:22.657Z,0
2022-11-23T05:56:22.593Z,0
2022-11-23T06:01:22.640Z,0
2022-11-23T06:06:22.596Z,0
2022-11-23T06:11:22.643Z,0
2022-11-23T06:16:22.616Z,0
2022-11-23T06:21:22.635Z,0
2022-11-23T06:26:22.636Z,0
2022-11-23T06:31:22.617Z,0
2022-11-23T06:36:22.620Z,0
2022-11-23T06:41:22.631Z,0
2022-11-23T06:46:22.585Z,0
2022-11-23T06:51:22.606Z,0
2022-11-23T06:56:22.623Z,0
2022-11-23T07:01:22.660Z,0
2022-11-23T07:06:22.602Z,0
2022-11-23T07:11:22.588Z,1
2022-11-23T07:16:22.584Z,6
2022-11-23T07:21:22.578Z,6
2022-11-23T07:26:22.585Z,4
2022-11-23T07:31:22.596Z,5
2022-11-23T07:36:22.586Z,17
2022-11-23T07:41:22.611Z,15
2022-11-23T07:46:22.608Z,14
2022-11-23T07:51:22.629Z,11
2022-11-23T07:56:22.563Z,13
2022-11-23T08:01:22.603Z,20
2022-11-23T08:06:22.560Z,16
2022-11-23T08:11:22.620Z,15
2022-11-23T08:16:22.575Z,31
2022-11-23T08:21:22.585Z,46
2022-11-23T08:26:22.550Z,37
2022-11-23T08:31:22.652Z,21
2022-11-23T08:36:22.633Z,48
2022-11-23T08:41:22.553Z,61
2022-11-23T08:46:22.576Z,56
2022-11-23T08:51:22.570Z,66
2022-11-23T08:56:22.559Z,124
2022-11-23T09:01:22.583Z,135
2022-11-23T09:06:22.585Z,178
2022-11-23T09:11:22.569Z,128
2022-11-23T09:16:22.577Z,89
2022-11-23T09:21:22.592Z,42
2022-11-23T09:26:22.542Z,45
2022-11-23T09:31:22.601Z,41
2022-11-23T09:36:22.567Z,45
2022-11-23T09:41:22.550Z,61
2022-11-23T09:46:22.549Z,133
2022-11-23T09:51:22.700Z,119
2022-11-23T09:56:22.543Z,49
2022-11-23T10:01:22.561Z,80
2022-11-23T10:06:22.545Z,129
2022-11-23T10:11:22.566Z,90
2022-11-23T10:16:22.559Z,136
2022-11-23T10:21:22.567Z,287
2022-11-23T10:26:22.565Z,318
2022-11-23T10:31:22.563Z,300
2022-11-23T10:36:22.571Z,208
2022-11-23T10:41:22.565Z,214
2022-11-23T10:46:22.558Z,143
2022-11-23T10:51:22.556Z,43
2022-11-23T10:56:22.546Z,37
2022-11-23T11:01:22.566Z,35
2022-11-23T11:06:22.578Z,39
2022-11-23T11:11:22.594Z,65
2022-11-23T11:16:22.544Z,63
2022-11-23T11:21:22.559Z,68
2022-11-23T11:26:22.539Z,90
2022-11-23T11:31:22.563Z,50
2022-11-23T11:36:22.563Z,61
2022-11-23T11:41:22.540Z,94
2022-11-23T11:46:30.428Z,115
2022-11-23T11:51:22.585Z,165
2022-11-23T11:56:22.538Z,169
2022-11-23T12:01:22.514Z,254
2022-11-23T12:06:26.587Z,208
2022-11-23T12:11:22.587Z,262
2022-11-23T12:16:22.523Z,225
2022-11-23T12:21:22.592Z,287
2022-11-23T12:26:22.572Z,238
2022-11-23T12:31:22.560Z,308
2022-11-23T12:36:23.679Z,475
2022-11-23T12:41:22.540Z,446
2022-11-23T12:46:22.577Z,435
2022-11-23T12:51:22.558Z,420
2022-11-23T12:56:22.602Z,200
2022-11-23T13:01:25.189Z,415
2022-11-23T13:06:22.515Z,374
2022-11-23T13:11:22.570Z,361
2022-11-23T13:16:22.609Z,338
2022-11-23T13:21:22.519Z,219
2022-11-23T13:26:22.568Z,239
2022-11-23T13:31:22.528Z,315
2022-11-23T13:36:22.485Z,274
2022-11-23T13:41:22.526Z,257
2022-11-23T13:46:22.612Z,249
2022-11-23T13:51:22.545Z,50
2022-11-23T13:56:22.506Z,215
2022-11-23T14:01:22.537Z,112
2022-11-23T14:06:22.478Z,69
2022-11-23T14:11:22.559Z,52
2022-11-23T14:16:22.529Z,33
2022-11-23T14:21:22.479Z,37
2022-11-23T14:26:22.502Z,29
2022-11-23T14:31:22.544Z,47
2022-11-23T14:36:22.487Z,36
2022-11-23T14:41:22.514Z,22
2022-11-23T14:46:22.563Z,24
2022-11-23T14:51:22.539Z,16
2022-11-23T14:56:22.484Z,15
2022-11-23T15:01:22.473Z,8
2022-11-23T15:06:22.867Z,3
2022-11-23T15:11:23.640Z,3
2022-11-23T15:16:23.385Z,1
2022-11-23T15:21:27.134Z,0
2022-11-23T15:26:42.323Z,0
2022-11-23T15:31:23.408Z,0
2022-11-23T15:36:23.381Z,0
2022-11-23T15:41:23.346Z,0
2022-11-23T15:46:23.382Z,0
2022-11-23T15:51:23.348Z,0
2022-11-23T15:56:23.359Z,0
2022-11-23T16:01:23.426Z,0
2022-11-23T16:06:23.327Z,0
2022-11-23T16:11:23.381Z,0
2022-11-23T16:16:23.405Z,0
2022-11-23T16:21:23.360Z,0
2022-11-23T16:26:23.320Z,0
2022-11-23T16:31:23.426Z,0
2022-11-23T16:36:23.341Z,0
2022-11-23T16:41:23.332Z,0
2022-11-23T16:46:23.370Z,0
2022-11-23T16:51:23.351Z,0
2022-11-23T16:56:23.348Z,0
2022-11-23T17:01:23.297Z,0
2022-11-23T17:06:23.322Z,0
2022-11-23T17:11:23.334Z,0
2022-11-23T17:16:23.374Z,0
2022-11-23T17:21:23.335Z,0
2022-11-23T17:26:23.334Z,0
2022-11-23T17:31:23.385Z,0
2022-11-23T17:36:23.307Z,0
2022-11-23T17:41:23.324Z,0
2022-11-23T17:46:23.377Z,0
2022-11-23T17:51:23.381Z,0
2022-11-23T17:56:23.337Z,0
2022-11-23T18:01:23.397Z,0
2022-11-23T18:06:23.328Z,0
2022-11-23T18:11:23.345Z,0
2022-11-23T18:16:23.322Z,0
2022-11-23T18:21:23.271Z,0
2022-11-23T18:26:23.283Z,0
2022-11-23T18:31:23.387Z,0
2022-11-23T18:36:23.280Z,0
2022-11-23T18:41:23.303Z,0
2022-11-23T18:46:23.303Z,0
2022-11-23T18:51:23.341Z,0
2022-11-23T18:56:23.293Z,0
2022-11-23T19:01:23.342Z,0
2022-11-23T19:06:23.262Z,0
2022-11-23T19:11:23.329Z,0
2022-11-23T19:16:23.356Z,0
2022-11-23T19:21:23.268Z,0
2022-11-23T19:26:23.298Z,0
2022-11-23T19:31:23.355Z,0
2022-11-23T19:36:23.271Z,0
2022-11-23T19:41:28.378Z,0
2022-11-23T19:46:23.347Z,0
2022-11-23T19:51:23.294Z,0
2022-11-23T19:56:23.259Z,0
2022-11-23T20:01:23.303Z,0
2022-11-23T20:06:23.263Z,0
2022-11-23T20:11:23.309Z,0
2022-11-23T20:16:23.310Z,0
2022-11-23T20:21:23.274Z,0
2022-11-23T20:26:23.264Z,0
2022-11-23T20:31:23.325Z,0
2022-11-23T20:36:23.272Z,0
2022-11-23T20:41:23.267Z,0
2022-11-23T20:46:38.506Z,0
2022-11-23T20:51:23.309Z,0
2022-11-23T20:56:27.092Z,0
2022-11-23T21:01:23.281Z,0
2022-11-23T21:06:23.230Z,0
2022-11-23T21:11:23.290Z,0
2022-11-23T21:16:23.297Z,0
2022-11-23T21:21:23.246Z,0
2022-11-23T21:26:23.231Z,0
2022-11-23T21:31:23.248Z,0
2022-11-23T21:36:23.221Z,0
2022-11-23T21:41:23.210Z,0
2022-11-23T21:46:23.260Z,0
2022-11-23T21:51:23.249Z,0
2022-11-23T21:56:23.220Z,0
2022-11-23T22:01:23.309Z,0
2022-11-23T22:06:23.212Z,0
2022-11-23T22:11:23.239Z,0
2022-11-23T22:16:23.247Z,0
2022-11-23T22:21:23.245Z,0
2022-11-23T22:26:23.213Z,0
2022-11-23T22:31:23.314Z,0
2022-11-23T22:36:23.198Z,0
2022-11-23T22:41:23.225Z,0
2022-11-23T22:46:23.263Z,0
2022-11-23T22:51:23.225Z,0
2022-11-23T22:56:23.193Z,0
2022-11-23T23:01:23.229Z,0
2022-11-23T23:06:23.229Z,0
2022-11-23T23:11:23.253Z,0
2022-11-23T23:16:23.301Z,0
2022-11-23T23:21:23.194Z,0
2022-11-23T23:26:23.213Z,0
2022-11-23T23:31:23.241Z,0
2022-11-23T23:36:23.203Z,0
2022-11-23T23:41:23.195Z,0
2022-11-23T23:46:23.286Z,0
2022-11-23T23:51:23.217Z,0
2022-11-23T23:56:23.170Z,0
